createdAt,value
2023-11-28T00:02:17.137Z,76.20
2023-11-28T00:04:45.151Z,78.76
2023-11-28T00:07:12.920Z,78.05
2023-11-28T00:09:40.326Z,77.59
2023-11-28T00:12:08.539Z,76.26
2023-11-28T00:14:35.979Z,75.13
2023-11-28T00:17:04.074Z,76.52
2023-11-28T00:19:31.988Z,77.08
2023-11-28T00:21:59.408Z,75.79
2023-11-28T00:24:27.270Z,75.64
2023-11-28T00:26:55.209Z,75.85
2023-11-28T00:29:22.818Z,75.49
2023-11-28T00:31:50.405Z,77.94
2023-11-28T00:34:18.932Z,78.15
2023-11-28T00:36:46.417Z,78.05
2023-11-28T00:39:14.881Z,78.36
2023-11-28T00:41:42.745Z,77.65
2023-11-28T00:44:11.169Z,77.49
2023-11-28T00:46:42.979Z,77.92
2023-11-28T00:49:14.245Z,77.50
2023-11-28T00:51:45.500Z,77.83
2023-11-28T00:54:13.512Z,78.09
2023-11-28T00:56:40.977Z,78.07
2023-11-28T00:59:08.477Z,77.40
2023-11-28T01:01:36.369Z,77.48
2023-11-28T01:04:04.140Z,77.40
2023-11-28T01:06:32.646Z,77.24
2023-11-28T01:09:00.556Z,78.20
2023-11-28T01:11:28.057Z,77.32
2023-11-28T01:13:55.910Z,75.76
2023-11-28T01:16:24.132Z,76.09
2023-11-28T01:18:52.610Z,76.07
2023-11-28T01:21:20.158Z,75.78
2023-11-28T01:23:48.078Z,75.32
2023-11-28T01:26:15.528Z,77.06
2023-11-28T01:28:44.425Z,76.43
2023-11-28T01:31:13.443Z,76.64
2023-11-28T01:33:41.113Z,77.97
2023-11-28T01:36:09.167Z,78.96
2023-11-28T01:38:38.646Z,78.04
2023-11-28T01:41:06.668Z,78.05
2023-11-28T01:43:35.701Z,79.10
2023-11-28T01:46:10.894Z,78.82
2023-11-28T01:48:39.761Z,78.85
2023-11-28T01:51:08.414Z,79.61
2023-11-28T01:53:37.669Z,79.71
2023-11-28T01:56:05.836Z,80.54
2023-11-28T01:58:33.986Z,80.51
2023-11-28T02:01:01.915Z,78.19
2023-11-28T02:03:30.433Z,78.01
2023-11-28T02:05:58.810Z,76.44
2023-11-28T02:08:27.500Z,74.53
2023-11-28T02:10:55.396Z,73.29
2023-11-28T02:13:22.852Z,72.40
2023-11-28T02:15:51.462Z,71.40
2023-11-28T02:18:19.048Z,71.12
2023-11-28T02:20:46.746Z,71.68
2023-11-28T02:23:15.322Z,71.73
2023-11-28T02:25:51.367Z,73.20
2023-11-28T02:28:20.567Z,70.71
2023-11-28T02:30:49.083Z,72.61
2023-11-28T02:33:17.615Z,71.76
2023-11-28T02:35:46.917Z,71.12
2023-11-28T02:38:15.053Z,70.81
2023-11-28T02:40:43.458Z,71.03
2023-11-28T02:43:11.700Z,70.22
2023-11-28T02:45:39.154Z,70.15
2023-11-28T02:48:06.816Z,69.42
2023-11-28T02:50:34.663Z,70.07
2023-11-28T02:53:02.388Z,69.95
2023-11-28T02:55:29.984Z,70.33
2023-11-28T02:57:59.956Z,70.53
2023-11-28T03:00:27.825Z,70.31
2023-11-28T03:02:55.583Z,69.98
2023-11-28T03:05:23.496Z,70.51
2023-11-28T03:07:52.753Z,70.27
2023-11-28T03:10:20.684Z,70.35
2023-11-28T03:12:49.949Z,72.19
2023-11-28T03:15:17.477Z,71.87
2023-11-28T03:17:46.201Z,71.77
2023-11-28T03:20:14.340Z,71.29
2023-11-28T03:22:42.301Z,71.77
2023-11-28T03:25:12.997Z,72.54
2023-11-28T03:27:41.095Z,73.29
2023-11-28T03:30:09.238Z,72.71
2023-11-28T03:32:37.229Z,73.52
2023-11-28T03:35:05.751Z,72.40
2023-11-28T03:37:33.343Z,72.97
2023-11-28T03:40:02.449Z,72.22
2023-11-28T03:42:30.354Z,71.89
2023-11-28T03:44:57.807Z,72.69
2023-11-28T03:47:25.398Z,71.85
2023-11-28T03:49:53.358Z,71.89
2023-11-28T03:52:20.853Z,71.96
2023-11-28T03:54:48.481Z,72.36
2023-11-28T03:57:16.356Z,72.81
2023-11-28T03:59:44.302Z,72.77
2023-11-28T04:02:11.891Z,72.06
2023-11-28T04:04:39.954Z,73.36
2023-11-28T04:07:07.805Z,72.79
2023-11-28T04:09:35.788Z,73.68
2023-11-28T04:12:03.773Z,73.09
2023-11-28T04:14:31.341Z,72.98
2023-11-28T04:16:58.789Z,70.92
2023-11-28T04:19:26.683Z,72.08
2023-11-28T04:21:54.615Z,72.55
2023-11-28T04:24:22.097Z,74.03
2023-11-28T04:26:50.146Z,73.58
2023-11-28T04:29:19.648Z,72.13
2023-11-28T04:31:47.377Z,72.30
2023-11-28T04:34:15.529Z,72.44
2023-11-28T04:36:43.132Z,71.42
2023-11-28T04:39:12.745Z,73.37
2023-11-28T04:41:40.672Z,73.89
2023-11-28T04:44:08.878Z,72.93
2023-11-28T04:46:36.735Z,72.93
2023-11-28T04:49:04.636Z,73.16
2023-11-28T04:51:32.287Z,73.87
2023-11-28T04:54:00.039Z,74.08
2023-11-28T04:56:28.825Z,74.12
2023-11-28T04:58:56.730Z,74.54
2023-11-28T05:01:26.752Z,74.54
2023-11-28T05:03:54.944Z,75.47
2023-11-28T05:06:23.980Z,76.20
2023-11-28T05:08:51.758Z,76.56
2023-11-28T05:11:20.591Z,76.45
2023-11-28T05:13:48.576Z,77.92
2023-11-28T05:16:16.236Z,77.73
2023-11-28T05:18:44.499Z,78.22
2023-11-28T05:21:14.420Z,77.96
2023-11-28T05:23:43.766Z,79.32
2023-11-28T05:26:12.272Z,79.62
2023-11-28T05:28:39.989Z,79.95
2023-11-28T05:31:09.102Z,79.13
2023-11-28T05:33:37.309Z,78.13
2023-11-28T05:36:07.496Z,79.13
2023-11-28T05:38:35.782Z,77.61
2023-11-28T05:41:05.062Z,78.90
2023-11-28T05:43:34.049Z,79.12
2023-11-28T05:46:02.215Z,80.14
2023-11-28T05:48:31.059Z,79.11
2023-11-28T05:50:59.351Z,79.09
2023-11-28T05:53:27.098Z,79.82
2023-11-28T05:55:55.071Z,79.02
2023-11-28T05:58:22.781Z,79.52
2023-11-28T06:00:51.053Z,79.77
2023-11-28T06:03:19.303Z,80.48
2023-11-28T06:05:47.059Z,80.79
2023-11-28T06:08:15.376Z,81.19
2023-11-28T06:10:44.230Z,81.12
2023-11-28T06:13:12.359Z,81.49
2023-11-28T06:15:39.884Z,81.23
2023-11-28T06:18:09.259Z,81.30
2023-11-28T06:20:38.517Z,81.85
2023-11-28T06:23:06.166Z,81.07
2023-11-28T06:25:34.116Z,80.71
2023-11-28T06:28:01.755Z,81.66
2023-11-28T06:30:29.279Z,80.87
2023-11-28T06:32:57.197Z,81.57
2023-11-28T06:35:26.291Z,81.56
2023-11-28T06:37:53.795Z,82.56
2023-11-28T06:40:22.746Z,81.66
2023-11-28T06:42:50.265Z,81.04
2023-11-28T06:45:17.958Z,81.11
2023-11-28T06:47:45.905Z,80.77
2023-11-28T06:50:14.968Z,81.88
2023-11-28T06:52:43.584Z,80.34
2023-11-28T06:55:11.693Z,80.42
2023-11-28T06:57:39.355Z,81.34
2023-11-28T07:00:08.624Z,81.63
2023-11-28T07:02:37.716Z,81.69
2023-11-28T07:05:06.195Z,81.38
2023-11-28T07:07:34.163Z,82.33
2023-11-28T07:10:02.073Z,82.80
2023-11-28T07:12:29.652Z,82.16
2023-11-28T07:14:57.549Z,82.52
2023-11-28T07:17:27.411Z,82.46
2023-11-28T07:19:54.981Z,81.45
2023-11-28T07:22:22.558Z,82.50
2023-11-28T07:24:50.546Z,82.36
2023-11-28T07:27:18.239Z,81.89
2023-11-28T07:29:45.916Z,81.05
2023-11-28T07:32:13.969Z,80.89
2023-11-28T07:34:41.609Z,80.89
2023-11-28T07:37:09.575Z,80.71
2023-11-28T07:39:37.485Z,80.22
2023-11-28T07:42:06.229Z,81.18
2023-11-28T07:44:33.794Z,81.85
2023-11-28T07:47:01.671Z,81.62
2023-11-28T07:49:29.238Z,82.22
2023-11-28T07:51:56.754Z,82.80
2023-11-28T07:54:24.563Z,82.86
2023-11-28T07:56:52.064Z,82.41
2023-11-28T07:59:19.607Z,82.97
2023-11-28T08:01:47.575Z,82.41
2023-11-28T08:04:16.227Z,81.17
2023-11-28T08:06:43.767Z,82.74
2023-11-28T08:09:11.221Z,82.06
2023-11-28T08:11:39.667Z,81.46
2023-11-28T08:14:08.718Z,80.78
2023-11-28T08:16:36.987Z,80.92
2023-11-28T08:19:05.031Z,82.53
2023-11-28T08:21:32.672Z,81.97
2023-11-28T08:24:02.109Z,82.67
2023-11-28T08:26:30.055Z,83.36
2023-11-28T08:28:57.751Z,83.51
2023-11-28T08:31:25.732Z,83.45
2023-11-28T08:33:53.778Z,83.82
2023-11-28T08:36:21.384Z,82.76
2023-11-28T08:38:48.988Z,81.78
2023-11-28T08:41:16.868Z,82.72
2023-11-28T08:43:44.622Z,82.75
2023-11-28T08:46:15.600Z,81.90
2023-11-28T08:48:43.646Z,81.57
2023-11-28T08:51:11.162Z,81.98
2023-11-28T08:53:39.509Z,80.68
2023-11-28T08:56:13.384Z,80.69
2023-11-28T08:58:41.276Z,80.94
2023-11-28T09:01:09.478Z,80.93
2023-11-28T09:03:37.214Z,78.80
2023-11-28T09:06:04.967Z,79.49
2023-11-28T09:08:33.091Z,80.72
2023-11-28T09:11:01.076Z,79.77
2023-11-28T09:13:28.814Z,78.86
2023-11-28T09:15:57.365Z,78.23
2023-11-28T09:18:29.073Z,78.47
2023-11-28T09:20:57.244Z,78.90
2023-11-28T09:23:26.463Z,77.89
2023-11-28T09:26:02.423Z,77.73
2023-11-28T09:28:34.048Z,77.03
2023-11-28T09:31:02.290Z,78.58
2023-11-28T09:33:30.363Z,78.95
2023-11-28T09:35:58.610Z,77.10
2023-11-28T09:38:26.301Z,76.04
2023-11-28T09:40:55.090Z,77.37
2023-11-28T09:43:27.903Z,76.87
2023-11-28T09:46:02.595Z,76.61
2023-11-28T09:48:31.862Z,77.74
2023-11-28T09:51:02.828Z,77.49
2023-11-28T09:53:37.927Z,77.17
2023-11-28T09:56:08.383Z,77.10
2023-11-28T09:58:38.147Z,76.52
2023-11-28T10:01:08.089Z,76.46
2023-11-28T10:03:36.345Z,75.34
2023-11-28T10:06:05.065Z,76.28
2023-11-28T10:08:36.518Z,77.05
2023-11-28T10:11:06.726Z,75.49
2023-11-28T10:13:34.230Z,74.27
2023-11-28T10:16:02.794Z,75.05
2023-11-28T10:18:32.204Z,74.04
2023-11-28T10:21:00.071Z,72.87
2023-11-28T10:23:28.748Z,72.51
2023-11-28T10:25:57.305Z,72.36
2023-11-28T10:28:25.318Z,72.30
2023-11-28T10:30:54.305Z,72.61
2023-11-28T10:33:23.620Z,73.08
2023-11-28T10:35:51.500Z,73.52
2023-11-28T10:38:19.676Z,73.14
2023-11-28T10:40:50.180Z,73.16
2023-11-28T10:43:18.579Z,74.50
2023-11-28T10:45:47.229Z,76.06
2023-11-28T10:48:16.222Z,74.58
2023-11-28T10:50:44.885Z,75.21
2023-11-28T10:53:17.027Z,74.72
2023-11-28T10:55:51.065Z,74.80
2023-11-28T10:58:20.460Z,75.26
2023-11-28T11:00:54.838Z,75.14
2023-11-28T11:03:25.841Z,76.20
2023-11-28T11:05:54.281Z,75.33
2023-11-28T11:08:23.341Z,76.80
2023-11-28T11:10:52.975Z,76.25
2023-11-28T11:13:54.889Z,75.56
2023-11-28T11:16:55.967Z,76.94
2023-11-28T11:19:25.297Z,76.35
2023-11-28T11:22:14.769Z,77.34
2023-11-28T11:24:44.557Z,78.38
2023-11-28T11:27:12.104Z,78.62
2023-11-28T11:29:41.846Z,78.74
2023-11-28T11:32:14.169Z,77.69
2023-11-28T11:34:43.449Z,77.57
2023-11-28T11:37:15.193Z,77.28
2023-11-28T11:39:44.417Z,76.93
2023-11-28T11:42:18.792Z,76.04
2023-11-28T11:44:52.465Z,76.61
2023-11-28T11:47:25.591Z,75.64
2023-11-28T11:49:54.910Z,76.40
2023-11-28T11:52:26.642Z,76.41
2023-11-28T11:55:08.210Z,75.98
2023-11-28T11:57:38.988Z,76.14
2023-11-28T12:00:14.804Z,75.49
2023-11-28T12:02:44.969Z,75.92
2023-11-28T12:05:13.974Z,76.31
2023-11-28T12:07:42.873Z,75.59
2023-11-28T12:10:14.169Z,74.80
2023-11-28T12:12:42.544Z,75.19
2023-11-28T12:15:14.050Z,75.32
2023-11-28T12:17:42.793Z,76.13
2023-11-28T12:20:12.310Z,77.06
2023-11-28T12:22:39.878Z,76.60
2023-11-28T12:25:08.324Z,77.79
2023-11-28T12:27:35.939Z,77.00
2023-11-28T12:30:04.603Z,77.44
2023-11-28T12:32:34.158Z,78.09
2023-11-28T12:35:02.130Z,78.16
2023-11-28T12:37:33.513Z,78.24
2023-11-28T12:40:05.028Z,78.84
2023-11-28T12:42:32.597Z,78.43
2023-11-28T12:45:02.432Z,79.21
2023-11-28T12:47:31.990Z,78.84
2023-11-28T12:55:38.032Z,79.80
2023-11-28T12:58:06.048Z,79.80
2023-11-28T13:00:33.503Z,81.34
2023-11-28T13:03:02.196Z,81.14
2023-11-28T13:05:31.136Z,80.93
2023-11-28T13:07:58.782Z,81.78
2023-11-28T13:10:26.456Z,81.70
2023-11-28T13:13:03.740Z,81.61
2023-11-28T13:15:39.567Z,82.13
2023-11-28T13:18:07.586Z,83.29
2023-11-28T13:20:35.241Z,83.80
2023-11-28T13:23:02.877Z,84.42
2023-11-28T13:25:30.812Z,85.39
2023-11-28T13:27:58.830Z,85.99
2023-11-28T13:30:27.429Z,86.13
2023-11-28T13:32:58.574Z,87.38
2023-11-28T13:35:27.033Z,88.52
2023-11-28T13:37:55.009Z,90.17
2023-11-28T13:40:22.577Z,90.53
2023-11-28T13:42:50.264Z,90.11
2023-11-28T13:45:18.793Z,90.69
2023-11-28T13:47:46.998Z,91.25
2023-11-28T13:50:14.892Z,91.38
2023-11-28T13:52:42.899Z,91.98
2023-11-28T13:55:10.480Z,91.34
2023-11-28T13:57:38.065Z,90.79
2023-11-28T14:00:07.885Z,90.71
2023-11-28T14:02:43.595Z,90.69
2023-11-28T14:05:13.852Z,90.79
2023-11-28T14:07:41.890Z,89.63
2023-11-28T14:10:10.401Z,89.70
2023-11-28T14:12:39.779Z,90.00
2023-11-28T14:15:08.469Z,90.50
2023-11-28T14:17:37.781Z,89.70
2023-11-28T14:20:09.331Z,90.42
2023-11-28T14:22:37.543Z,90.94
2023-11-28T14:25:05.830Z,91.14
2023-11-28T14:27:33.397Z,93.74
2023-11-28T14:30:01.371Z,94.18
2023-11-28T14:32:29.358Z,94.37
2023-11-28T14:34:58.691Z,96.60
2023-11-28T14:37:26.933Z,97.50
2023-11-28T14:39:54.800Z,97.68
2023-11-28T14:42:22.512Z,99.13
2023-11-28T14:44:51.269Z,100.00
2023-11-28T14:47:19.636Z,100.00
2023-11-28T14:49:47.361Z,100.00
2023-11-28T14:52:16.913Z,100.00
2023-11-28T14:54:44.678Z,100.00
2023-11-28T14:57:15.052Z,100.00
2023-11-28T14:59:43.373Z,100.00
2023-11-28T15:02:11.850Z,100.00
2023-11-28T15:04:39.534Z,100.00
2023-11-28T15:07:07.769Z,100.00
2023-11-28T15:09:35.916Z,100.00
2023-11-28T15:12:05.396Z,100.00
2023-11-28T15:14:33.457Z,100.00
2023-11-28T15:17:02.467Z,100.00
2023-11-28T15:19:30.087Z,100.00
2023-11-28T15:21:58.179Z,100.00
2023-11-28T15:24:27.251Z,100.00
2023-11-28T15:26:55.617Z,100.00
2023-11-28T15:29:23.650Z,100.00
2023-11-28T15:31:54.211Z,100.00
2023-11-28T15:34:24.267Z,100.00
2023-11-28T15:36:52.193Z,100.00
2023-11-28T15:39:19.774Z,100.00
2023-11-28T15:41:47.251Z,100.00
2023-11-28T15:44:15.233Z,100.00
2023-11-28T15:46:46.116Z,100.00
2023-11-28T15:49:13.762Z,100.00
2023-11-28T15:51:41.727Z,100.00
2023-11-28T15:54:09.718Z,100.00
2023-11-28T15:56:37.495Z,100.00
2023-11-28T15:59:06.034Z,100.00
2023-11-28T16:01:33.750Z,100.00
2023-11-28T16:04:01.704Z,100.00
2023-11-28T16:06:29.376Z,100.00
2023-11-28T16:08:57.110Z,100.00
2023-11-28T16:11:26.104Z,100.00
2023-11-28T16:13:53.816Z,100.00
2023-11-28T16:16:23.098Z,100.00
2023-11-28T16:18:51.113Z,100.00
2023-11-28T16:21:25.371Z,100.00
2023-11-28T16:23:53.306Z,100.00
2023-11-28T16:26:22.576Z,100.00
2023-11-28T16:28:50.551Z,100.00
2023-11-28T16:31:22.442Z,100.00
2023-11-28T16:33:50.292Z,100.00
2023-11-28T16:36:18.195Z,100.00
2023-11-28T16:38:45.825Z,100.00
2023-11-28T16:41:17.591Z,100.00
2023-11-28T16:43:45.985Z,100.00
2023-11-28T16:46:13.634Z,100.00
2023-11-28T16:48:41.272Z,100.00
2023-11-28T16:51:12.145Z,100.00
2023-11-28T16:53:39.717Z,100.00
2023-11-28T16:56:08.368Z,100.00
2023-11-28T16:58:36.744Z,100.00
2023-11-28T17:01:06.814Z,100.00
2023-11-28T17:03:34.804Z,100.00
2023-11-28T17:06:02.863Z,100.00
2023-11-28T17:08:30.632Z,100.00
2023-11-28T17:10:58.235Z,100.00
2023-11-28T17:13:28.859Z,100.00
2023-11-28T17:15:56.705Z,100.00
2023-11-28T17:18:24.615Z,100.00
2023-11-28T17:20:52.531Z,100.00
2023-11-28T17:23:21.017Z,100.00
2023-11-28T17:25:49.437Z,100.00
2023-11-28T17:28:17.961Z,100.00
2023-11-28T17:30:46.804Z,100.00
2023-11-28T17:33:14.558Z,100.00
2023-11-28T17:35:43.610Z,100.00
2023-11-28T17:38:11.907Z,100.00
2023-11-28T17:40:39.622Z,100.00
2023-11-28T17:43:08.507Z,100.00
2023-11-28T17:45:38.075Z,100.00
2023-11-28T17:48:06.206Z,100.00
2023-11-28T17:50:34.371Z,100.00
2023-11-28T17:53:02.353Z,100.00
2023-11-28T17:55:29.979Z,100.00
2023-11-28T17:57:59.448Z,100.00
2023-11-28T18:00:27.148Z,100.00
2023-11-28T18:02:55.312Z,100.00
2023-11-28T18:05:23.650Z,100.00
2023-11-28T18:07:51.264Z,100.00
2023-11-28T18:10:21.707Z,100.00
2023-11-28T18:12:49.254Z,100.00
2023-11-28T18:15:26.176Z,100.00
2023-11-28T18:18:01.920Z,100.00
2023-11-28T18:20:29.899Z,100.00
2023-11-28T18:23:00.601Z,100.00
2023-11-28T18:25:29.110Z,100.00
2023-11-28T18:27:58.540Z,100.00
2023-11-28T18:30:26.724Z,100.00
2023-11-28T18:32:54.947Z,100.00
2023-11-28T18:35:23.209Z,100.00
2023-11-28T18:37:51.653Z,100.00
2023-11-28T18:40:22.877Z,100.00
2023-11-28T18:42:51.655Z,100.00
2023-11-28T18:45:21.246Z,100.00
2023-11-28T18:47:49.956Z,100.00
2023-11-28T18:50:18.785Z,100.00
2023-11-28T18:52:50.044Z,100.00
2023-11-28T18:55:20.415Z,100.00
2023-11-28T18:57:48.718Z,100.00
2023-11-28T19:00:21.419Z,100.00
2023-11-28T19:02:51.716Z,100.00
2023-11-28T19:05:22.367Z,100.00
2023-11-28T19:07:51.095Z,100.00
2023-11-28T19:10:21.209Z,100.00
2023-11-28T19:12:49.308Z,100.00
2023-11-28T19:15:17.569Z,100.00
2023-11-28T19:17:45.324Z,100.00
2023-11-28T19:20:13.128Z,100.00
2023-11-28T19:22:41.181Z,100.00
2023-11-28T19:25:08.980Z,100.00
2023-11-28T19:27:36.705Z,100.00
2023-11-28T19:30:05.292Z,100.00
2023-11-28T19:32:33.029Z,100.00
2023-11-28T19:35:00.759Z,100.00
2023-11-28T19:37:29.054Z,100.00
2023-11-28T19:39:56.599Z,100.00
2023-11-28T19:42:24.173Z,100.00
2023-11-28T19:44:52.282Z,100.00
2023-11-28T19:47:19.878Z,100.00
2023-11-28T19:49:47.464Z,100.00
2023-11-28T19:52:15.403Z,100.00
2023-11-28T19:54:43.078Z,100.00
2023-11-28T19:57:10.661Z,100.00
2023-11-28T19:59:41.791Z,100.00
2023-11-28T20:02:09.515Z,100.00
2023-11-28T20:04:37.670Z,100.00
2023-11-28T20:07:05.727Z,100.00
2023-11-28T20:09:33.361Z,100.00
2023-11-28T20:12:01.342Z,100.00
2023-11-28T20:14:29.202Z,100.00
2023-11-28T20:16:56.932Z,100.00
2023-11-28T20:19:25.603Z,100.00
2023-11-28T20:21:54.729Z,100.00
2023-11-28T20:24:22.290Z,100.00
2023-11-28T20:26:51.950Z,100.00
2023-11-28T20:29:19.684Z,100.00
2023-11-28T20:31:47.250Z,100.00
2023-11-28T20:34:15.093Z,100.00
2023-11-28T20:36:42.742Z,100.00
2023-11-28T20:39:11.107Z,100.00
2023-11-28T20:41:39.038Z,100.00
2023-11-28T20:44:08.750Z,100.00
2023-11-28T20:46:36.773Z,100.00
2023-11-28T20:49:04.848Z,100.00
2023-11-28T20:51:32.413Z,100.00
2023-11-28T20:54:00.080Z,100.00
2023-11-28T20:56:29.669Z,100.00
2023-11-28T20:58:57.282Z,100.00
2023-11-28T21:01:29.945Z,100.00
2023-11-28T21:03:58.024Z,100.00
2023-11-28T21:06:25.751Z,100.00
2023-11-28T21:08:53.630Z,100.00
2023-11-28T21:11:22.201Z,100.00
2023-11-28T21:13:49.881Z,100.00
2023-11-28T21:16:18.940Z,100.00
2023-11-28T21:18:47.127Z,100.00
2023-11-28T21:21:24.612Z,100.00
2023-11-28T21:23:52.995Z,100.00
2023-11-28T21:26:23.007Z,100.00
2023-11-28T21:28:51.807Z,100.00
2023-11-28T21:31:20.068Z,100.00
2023-11-28T21:33:47.833Z,100.00
2023-11-28T21:36:17.792Z,100.00
2023-11-28T21:38:47.173Z,100.00
2023-11-28T21:41:17.591Z,100.00
2023-11-28T21:43:46.036Z,100.00
2023-11-28T21:46:14.307Z,100.00
2023-11-28T21:48:47.276Z,100.00
2023-11-28T21:51:15.452Z,100.00
2023-11-28T21:53:43.888Z,100.00
2023-11-28T21:56:11.522Z,100.00
2023-11-28T21:58:39.579Z,100.00
2023-11-28T22:01:07.384Z,100.00
2023-11-28T22:03:35.514Z,100.00
2023-11-28T22:06:05.369Z,100.00
2023-11-28T22:08:33.099Z,100.00
2023-11-28T22:11:01.230Z,100.00
2023-11-28T22:13:28.854Z,100.00
2023-11-28T22:15:56.542Z,100.00
2023-11-28T22:18:24.471Z,100.00
2023-11-28T22:20:52.025Z,100.00
2023-11-28T22:23:19.646Z,100.00
2023-11-28T22:25:47.627Z,100.00
2023-11-28T22:28:18.146Z,100.00
2023-11-28T22:30:45.744Z,100.00
2023-11-28T22:33:13.747Z,100.00
2023-11-28T22:35:41.276Z,100.00
2023-11-28T22:38:08.931Z,100.00
2023-11-28T22:40:36.857Z,100.00
2023-11-28T22:43:04.405Z,100.00
2023-11-28T22:45:32.822Z,100.00
2023-11-28T22:48:01.278Z,100.00
2023-11-28T22:50:30.076Z,100.00
2023-11-28T22:52:58.312Z,100.00
2023-11-28T22:55:26.621Z,100.00
2023-11-28T22:57:54.913Z,100.00
2023-11-28T23:00:23.619Z,100.00
2023-11-28T23:02:51.631Z,100.00
2023-11-28T23:05:19.392Z,100.00
2023-11-28T23:07:47.009Z,100.00
2023-11-28T23:10:15.375Z,100.00
2023-11-28T23:12:42.994Z,100.00
2023-11-28T23:15:11.324Z,100.00
2023-11-28T23:17:39.970Z,100.00
2023-11-28T23:20:08.204Z,100.00
2023-11-28T23:22:40.479Z,100.00
2023-11-28T23:25:12.443Z,100.00
2023-11-28T23:27:40.038Z,100.00
2023-11-28T23:30:08.324Z,100.00
2023-11-28T23:32:36.302Z,100.00
2023-11-28T23:35:04.652Z,100.00
2023-11-28T23:37:32.364Z,100.00
2023-11-28T23:40:01.192Z,100.00
2023-11-28T23:42:30.839Z,100.00
2023-11-28T23:45:00.590Z,100.00
2023-11-28T23:47:28.113Z,100.00
2023-11-28T23:49:55.665Z,100.00
2023-11-28T23:52:23.715Z,100.00
2023-11-28T23:54:51.324Z,100.00
2023-11-28T23:57:18.835Z,100.00
2023-11-28T23:59:46.814Z,100.00
